Milton, Kansas
Current Conditions -  °F | °C
As of 12:10 PM on Sunday 21 Dec 2014 (Local Time) from KICT Reporting Station
Haze Haze  
Wind Chill: 36°   Ceiling: 700
Heat Index: 44°   Visibility: 3mi
Dew Point: 40°   Wind: 17mph
Humidity: 85%   Direction: 170°S
Pressure: 29.86"   Gusts: NA
Location:  37.43°N, 97.77°W
Report Text: KICT 211810Z 17015KT 3SM BR OVC007 07/04 A2986 RMK AO2 DZE07 P0000 T00670044 $
Loading
Personal Weather Stations






























Interactive Weather Map New forecast layout! Learn more

10-Day Weather Forecast

Advertisements
Track Severe Weather on mobile